sensor_id;sensor_type;location;lat;lon;timestamp;temperature;humidity
45066;DHT22;30830;53.704;10.004;2023-06-26T00:01:26;20.90;99.90
45066;DHT22;30830;53.704;10.004;2023-06-26T00:03:55;20.80;99.90
45066;DHT22;30830;53.704;10.004;2023-06-26T00:06:20;20.80;99.90
45066;DHT22;30830;53.704;10.004;2023-06-26T00:08:46;20.80;99.90
45066;DHT22;30830;53.704;10.004;2023-06-26T00:11:11;20.80;99.90
45066;DHT22;30830;53.704;10.004;2023-06-26T00:13:37;20.70;99.90
45066;DHT22;30830;53.704;10.004;2023-06-26T00:16:03;20.70;99.90
45066;DHT22;30830;53.704;10.004;2023-06-26T00:18:29;20.60;99.90
45066;DHT22;30830;53.704;10.004;2023-06-26T00:20:54;20.60;99.90
45066;DHT22;30830;53.704;10.004;2023-06-26T00:23:20;20.60;99.90
45066;DHT22;30830;53.704;10.004;2023-06-26T00:25:45;20.60;99.90
45066;DHT22;30830;53.704;10.004;2023-06-26T00:28:11;20.60;99.90
45066;DHT22;30830;53.704;10.004;2023-06-26T00:30:37;20.50;99.90
45066;DHT22;30830;53.704;10.004;2023-06-26T00:33:02;20.50;99.90
45066;DHT22;30830;53.704;10.004;2023-06-26T00:35:28;20.50;99.90
45066;DHT22;30830;53.704;10.004;2023-06-26T00:37:53;20.50;99.90
45066;DHT22;30830;53.704;10.004;2023-06-26T00:40:19;20.50;99.90
45066;DHT22;30830;53.704;10.004;2023-06-26T00:42:44;20.50;99.90
45066;DHT22;30830;53.704;10.004;2023-06-26T00:45:13;20.50;99.90
45066;DHT22;30830;53.704;10.004;2023-06-26T00:47:38;20.40;99.90
45066;DHT22;30830;53.704;10.004;2023-06-26T00:50:05;20.40;99.90
45066;DHT22;30830;53.704;10.004;2023-06-26T00:52:31;20.40;99.90
45066;DHT22;30830;53.704;10.004;2023-06-26T00:54:57;20.40;99.90
45066;DHT22;30830;53.704;10.004;2023-06-26T00:57:23;20.40;99.90
45066;DHT22;30830;53.704;10.004;2023-06-26T00:59:49;20.40;99.90
45066;DHT22;30830;53.704;10.004;2023-06-26T01:02:15;20.30;99.90
45066;DHT22;30830;53.704;10.004;2023-06-26T01:04:43;20.30;99.90
45066;DHT22;30830;53.704;10.004;2023-06-26T01:07:13;20.30;99.90
45066;DHT22;30830;53.704;10.004;2023-06-26T01:09:41;20.30;99.90
45066;DHT22;30830;53.704;10.004;2023-06-26T01:12:07;20.30;99.90
45066;DHT22;30830;53.704;10.004;2023-06-26T01:14:34;20.30;99.90
45066;DHT22;30830;53.704;10.004;2023-06-26T01:17:02;20.30;99.90
45066;DHT22;30830;53.704;10.004;2023-06-26T01:19:30;20.20;99.90
45066;DHT22;30830;53.704;10.004;2023-06-26T01:22:05;20.20;99.90
45066;DHT22;30830;53.704;10.004;2023-06-26T01:24:45;20.20;99.90
45066;DHT22;30830;53.704;10.004;2023-06-26T01:27:12;20.20;99.90
45066;DHT22;30830;53.704;10.004;2023-06-26T01:29:39;20.20;99.90
45066;DHT22;30830;53.704;10.004;2023-06-26T01:32:05;20.20;99.90
45066;DHT22;30830;53.704;10.004;2023-06-26T01:34:31;20.10;99.90
45066;DHT22;30830;53.704;10.004;2023-06-26T01:36:57;20.10;99.90
45066;DHT22;30830;53.704;10.004;2023-06-26T01:39:22;20.10;99.90
45066;DHT22;30830;53.704;10.004;2023-06-26T01:41:48;20.10;99.90
45066;DHT22;30830;53.704;10.004;2023-06-26T01:44:26;20.10;99.90
45066;DHT22;30830;53.704;10.004;2023-06-26T01:47:02;20.10;99.90
45066;DHT22;30830;53.704;10.004;2023-06-26T01:49:47;20.00;99.90
45066;DHT22;30830;53.704;10.004;2023-06-26T01:55:20;20.00;99.90
45066;DHT22;30830;53.704;10.004;2023-06-26T01:57:47;20.00;99.90
45066;DHT22;30830;53.704;10.004;2023-06-26T02:00:18;20.00;99.90
45066;DHT22;30830;53.704;10.004;2023-06-26T02:02:44;20.00;99.90
45066;DHT22;30830;53.704;10.004;2023-06-26T02:05:11;20.00;99.90
45066;DHT22;30830;53.704;10.004;2023-06-26T02:07:37;20.00;99.90
45066;DHT22;30830;53.704;10.004;2023-06-26T02:10:03;19.90;99.90
45066;DHT22;30830;53.704;10.004;2023-06-26T02:12:28;19.90;99.90
45066;DHT22;30830;53.704;10.004;2023-06-26T02:14:54;19.90;99.90
45066;DHT22;30830;53.704;10.004;2023-06-26T02:17:19;19.80;99.90
45066;DHT22;30830;53.704;10.004;2023-06-26T02:19:45;19.80;99.90
45066;DHT22;30830;53.704;10.004;2023-06-26T02:22:13;19.80;99.90
45066;DHT22;30830;53.704;10.004;2023-06-26T02:24:40;19.70;99.90
45066;DHT22;30830;53.704;10.004;2023-06-26T02:27:06;19.70;99.90
45066;DHT22;30830;53.704;10.004;2023-06-26T02:29:31;19.70;99.90
45066;DHT22;30830;53.704;10.004;2023-06-26T02:31:57;19.70;99.90
45066;DHT22;30830;53.704;10.004;2023-06-26T02:34:22;19.70;99.90
45066;DHT22;30830;53.704;10.004;2023-06-26T02:36:48;19.70;99.90
45066;DHT22;30830;53.704;10.004;2023-06-26T02:39:13;19.70;99.90
45066;DHT22;30830;53.704;10.004;2023-06-26T02:41:40;19.70;99.90
45066;DHT22;30830;53.704;10.004;2023-06-26T02:44:05;19.70;99.90
45066;DHT22;30830;53.704;10.004;2023-06-26T02:46:31;19.60;99.90
45066;DHT22;30830;53.704;10.004;2023-06-26T02:48:57;19.70;99.90
45066;DHT22;30830;53.704;10.004;2023-06-26T02:51:22;19.70;99.90
45066;DHT22;30830;53.704;10.004;2023-06-26T02:53:48;19.60;99.90
45066;DHT22;30830;53.704;10.004;2023-06-26T02:56:13;19.60;99.90
45066;DHT22;30830;53.704;10.004;2023-06-26T02:58:39;19.60;99.90
45066;DHT22;30830;53.704;10.004;2023-06-26T03:01:04;19.60;99.90
45066;DHT22;30830;53.704;10.004;2023-06-26T03:03:30;19.60;99.90
45066;DHT22;30830;53.704;10.004;2023-06-26T03:05:55;19.60;99.90
45066;DHT22;30830;53.704;10.004;2023-06-26T03:08:22;19.60;99.90
45066;DHT22;30830;53.704;10.004;2023-06-26T03:10:47;19.60;99.90
45066;DHT22;30830;53.704;10.004;2023-06-26T03:13:13;19.60;99.90
45066;DHT22;30830;53.704;10.004;2023-06-26T03:15:38;19.60;99.90
45066;DHT22;30830;53.704;10.004;2023-06-26T03:18:04;19.60;99.90
45066;DHT22;30830;53.704;10.004;2023-06-26T03:20:29;19.60;99.90
45066;DHT22;30830;53.704;10.004;2023-06-26T03:22:55;19.60;99.90
45066;DHT22;30830;53.704;10.004;2023-06-26T03:25:20;19.60;99.90
45066;DHT22;30830;53.704;10.004;2023-06-26T03:27:46;19.60;99.90
45066;DHT22;30830;53.704;10.004;2023-06-26T03:30:12;19.60;99.90
45066;DHT22;30830;53.704;10.004;2023-06-26T03:32:38;19.60;99.90
45066;DHT22;30830;53.704;10.004;2023-06-26T03:35:03;19.60;99.90
45066;DHT22;30830;53.704;10.004;2023-06-26T03:37:29;19.60;99.90
45066;DHT22;30830;53.704;10.004;2023-06-26T03:39:55;19.60;99.90
45066;DHT22;30830;53.704;10.004;2023-06-26T03:42:20;19.60;99.90
45066;DHT22;30830;53.704;10.004;2023-06-26T03:44:46;19.60;99.90
45066;DHT22;30830;53.704;10.004;2023-06-26T03:47:11;19.60;99.90
45066;DHT22;30830;53.704;10.004;2023-06-26T03:49:37;19.60;99.90
45066;DHT22;30830;53.704;10.004;2023-06-26T03:52:02;19.70;99.90
45066;DHT22;30830;53.704;10.004;2023-06-26T03:54:28;19.70;99.90
45066;DHT22;30830;53.704;10.004;2023-06-26T03:56:53;19.60;99.90
45066;DHT22;30830;53.704;10.004;2023-06-26T03:59:19;19.70;99.90
45066;DHT22;30830;53.704;10.004;2023-06-26T04:01:44;19.70;99.90
45066;DHT22;30830;53.704;10.004;2023-06-26T04:04:10;19.70;99.90
45066;DHT22;30830;53.704;10.004;2023-06-26T04:06:35;19.70;99.90
45066;DHT22;30830;53.704;10.004;2023-06-26T04:09:01;19.70;99.90
45066;DHT22;30830;53.704;10.004;2023-06-26T04:11:27;19.70;99.90
45066;DHT22;30830;53.704;10.004;2023-06-26T04:13:52;19.70;99.90
45066;DHT22;30830;53.704;10.004;2023-06-26T04:16:19;19.70;99.90
45066;DHT22;30830;53.704;10.004;2023-06-26T04:18:44;19.80;99.90
45066;DHT22;30830;53.704;10.004;2023-06-26T04:21:11;19.80;99.90
45066;DHT22;30830;53.704;10.004;2023-06-26T04:23:38;19.80;99.90
45066;DHT22;30830;53.704;10.004;2023-06-26T04:26:05;19.80;99.90
45066;DHT22;30830;53.704;10.004;2023-06-26T04:28:32;19.80;99.90
45066;DHT22;30830;53.704;10.004;2023-06-26T04:30:59;19.90;99.90
45066;DHT22;30830;53.704;10.004;2023-06-26T04:33:25;19.90;99.90
45066;DHT22;30830;53.704;10.004;2023-06-26T04:35:51;19.90;99.90
45066;DHT22;30830;53.704;10.004;2023-06-26T04:38:16;19.90;99.90
45066;DHT22;30830;53.704;10.004;2023-06-26T04:40:42;19.90;99.90
45066;DHT22;30830;53.704;10.004;2023-06-26T04:43:08;20.00;99.90
45066;DHT22;30830;53.704;10.004;2023-06-26T04:45:33;20.00;99.90
45066;DHT22;30830;53.704;10.004;2023-06-26T04:47:59;20.00;99.90
45066;DHT22;30830;53.704;10.004;2023-06-26T04:50:25;20.10;99.90
45066;DHT22;30830;53.704;10.004;2023-06-26T04:52:51;20.10;99.90
45066;DHT22;30830;53.704;10.004;2023-06-26T04:55:17;20.10;99.90
45066;DHT22;30830;53.704;10.004;2023-06-26T04:57:42;20.10;99.90
45066;DHT22;30830;53.704;10.004;2023-06-26T05:00:08;20.20;99.90
45066;DHT22;30830;53.704;10.004;2023-06-26T05:02:36;20.20;99.90
45066;DHT22;30830;53.704;10.004;2023-06-26T05:05:01;20.30;99.90
45066;DHT22;30830;53.704;10.004;2023-06-26T05:07:27;20.30;99.90
45066;DHT22;30830;53.704;10.004;2023-06-26T05:09:53;20.40;99.90
45066;DHT22;30830;53.704;10.004;2023-06-26T05:12:18;20.40;99.90
45066;DHT22;30830;53.704;10.004;2023-06-26T05:14:44;20.50;99.90
45066;DHT22;30830;53.704;10.004;2023-06-26T05:17:10;20.50;99.90
45066;DHT22;30830;53.704;10.004;2023-06-26T05:19:36;20.60;99.90
45066;DHT22;30830;53.704;10.004;2023-06-26T05:22:02;20.60;99.90
45066;DHT22;30830;53.704;10.004;2023-06-26T05:24:37;20.70;99.90
45066;DHT22;30830;53.704;10.004;2023-06-26T05:27:03;20.80;99.90
45066;DHT22;30830;53.704;10.004;2023-06-26T05:29:30;20.80;99.90
45066;DHT22;30830;53.704;10.004;2023-06-26T05:31:57;20.90;99.90
45066;DHT22;30830;53.704;10.004;2023-06-26T05:34:23;21.00;99.90
45066;DHT22;30830;53.704;10.004;2023-06-26T05:36:51;21.10;99.90
45066;DHT22;30830;53.704;10.004;2023-06-26T05:39:18;21.20;99.90
45066;DHT22;30830;53.704;10.004;2023-06-26T05:41:44;21.20;99.90
45066;DHT22;30830;53.704;10.004;2023-06-26T05:44:10;21.40;99.90
45066;DHT22;30830;53.704;10.004;2023-06-26T05:46:36;21.40;99.90
45066;DHT22;30830;53.704;10.004;2023-06-26T05:49:01;21.60;99.90
45066;DHT22;30830;53.704;10.004;2023-06-26T05:51:27;21.70;99.90
45066;DHT22;30830;53.704;10.004;2023-06-26T05:53:53;21.90;99.90
45066;DHT22;30830;53.704;10.004;2023-06-26T05:56:19;22.10;99.90
45066;DHT22;30830;53.704;10.004;2023-06-26T05:58:46;22.20;99.90
45066;DHT22;30830;53.704;10.004;2023-06-26T06:01:11;22.30;99.90
45066;DHT22;30830;53.704;10.004;2023-06-26T06:03:39;22.50;99.90
45066;DHT22;30830;53.704;10.004;2023-06-26T06:06:05;22.60;99.90
45066;DHT22;30830;53.704;10.004;2023-06-26T06:08:30;22.80;99.90
45066;DHT22;30830;53.704;10.004;2023-06-26T06:10:56;22.90;99.90
45066;DHT22;30830;53.704;10.004;2023-06-26T06:13:21;23.10;99.90
45066;DHT22;30830;53.704;10.004;2023-06-26T06:15:47;23.20;99.90
45066;DHT22;30830;53.704;10.004;2023-06-26T06:18:13;23.30;99.90
45066;DHT22;30830;53.704;10.004;2023-06-26T06:20:38;23.50;99.90
45066;DHT22;30830;53.704;10.004;2023-06-26T06:23:04;23.60;99.90
45066;DHT22;30830;53.704;10.004;2023-06-26T06:25:29;23.70;99.90
45066;DHT22;30830;53.704;10.004;2023-06-26T06:27:55;23.80;99.90
45066;DHT22;30830;53.704;10.004;2023-06-26T06:30:21;24.00;99.90
45066;DHT22;30830;53.704;10.004;2023-06-26T06:32:46;24.10;99.90
45066;DHT22;30830;53.704;10.004;2023-06-26T06:35:16;24.20;99.90
45066;DHT22;30830;53.704;10.004;2023-06-26T06:37:42;24.40;99.90
45066;DHT22;30830;53.704;10.004;2023-06-26T06:40:09;24.50;99.90
45066;DHT22;30830;53.704;10.004;2023-06-26T06:42:35;24.60;99.90
45066;DHT22;30830;53.704;10.004;2023-06-26T06:45:04;24.80;99.90
45066;DHT22;30830;53.704;10.004;2023-06-26T06:47:32;24.90;99.90
45066;DHT22;30830;53.704;10.004;2023-06-26T06:49:58;25.00;99.90
45066;DHT22;30830;53.704;10.004;2023-06-26T06:52:24;25.20;99.90
45066;DHT22;30830;53.704;10.004;2023-06-26T06:54:53;25.20;99.90
45066;DHT22;30830;53.704;10.004;2023-06-26T06:57:20;25.30;99.90
45066;DHT22;30830;53.704;10.004;2023-06-26T06:59:46;25.40;99.90
45066;DHT22;30830;53.704;10.004;2023-06-26T07:02:13;25.40;99.90
45066;DHT22;30830;53.704;10.004;2023-06-26T07:04:38;25.40;99.90
45066;DHT22;30830;53.704;10.004;2023-06-26T07:07:04;25.60;99.90
45066;DHT22;30830;53.704;10.004;2023-06-26T07:09:30;25.70;99.90
45066;DHT22;30830;53.704;10.004;2023-06-26T07:11:55;25.90;99.90
45066;DHT22;30830;53.704;10.004;2023-06-26T07:14:21;26.00;99.90
45066;DHT22;30830;53.704;10.004;2023-06-26T07:16:46;26.10;99.90
45066;DHT22;30830;53.704;10.004;2023-06-26T07:19:12;26.30;99.90
45066;DHT22;30830;53.704;10.004;2023-06-26T07:21:37;26.30;99.90
45066;DHT22;30830;53.704;10.004;2023-06-26T07:24:03;26.40;99.90
45066;DHT22;30830;53.704;10.004;2023-06-26T07:26:28;26.60;99.90
45066;DHT22;30830;53.704;10.004;2023-06-26T07:28:54;26.80;99.90
45066;DHT22;30830;53.704;10.004;2023-06-26T07:31:22;26.90;99.90
45066;DHT22;30830;53.704;10.004;2023-06-26T07:33:47;27.10;99.90
45066;DHT22;30830;53.704;10.004;2023-06-26T07:36:13;27.10;99.90
45066;DHT22;30830;53.704;10.004;2023-06-26T07:38:38;27.30;99.90
45066;DHT22;30830;53.704;10.004;2023-06-26T07:41:04;27.30;99.90
45066;DHT22;30830;53.704;10.004;2023-06-26T07:43:29;27.50;99.90
45066;DHT22;30830;53.704;10.004;2023-06-26T07:45:56;27.60;99.80
45066;DHT22;30830;53.704;10.004;2023-06-26T07:48:24;27.70;99.90
45066;DHT22;30830;53.704;10.004;2023-06-26T07:50:50;27.90;99.90
45066;DHT22;30830;53.704;10.004;2023-06-26T07:53:15;28.00;99.60
45066;DHT22;30830;53.704;10.004;2023-06-26T07:55:41;28.10;99.90
45066;DHT22;30830;53.704;10.004;2023-06-26T07:58:07;28.20;99.90
45066;DHT22;30830;53.704;10.004;2023-06-26T08:00:33;28.40;99.60
45066;DHT22;30830;53.704;10.004;2023-06-26T08:02:58;28.30;98.40
45066;DHT22;30830;53.704;10.004;2023-06-26T08:05:27;28.30;98.50
45066;DHT22;30830;53.704;10.004;2023-06-26T08:07:52;28.40;99.10
45066;DHT22;30830;53.704;10.004;2023-06-26T08:10:18;28.50;98.90
45066;DHT22;30830;53.704;10.004;2023-06-26T08:12:44;28.50;98.40
45066;DHT22;30830;53.704;10.004;2023-06-26T08:15:11;28.50;98.40
45066;DHT22;30830;53.704;10.004;2023-06-26T08:17:37;28.60;98.60
45066;DHT22;30830;53.704;10.004;2023-06-26T08:20:04;28.50;98.60
45066;DHT22;30830;53.704;10.004;2023-06-26T08:22:30;28.60;98.60
45066;DHT22;30830;53.704;10.004;2023-06-26T08:24:56;28.60;98.40
45066;DHT22;30830;53.704;10.004;2023-06-26T08:27:21;28.60;98.70
45066;DHT22;30830;53.704;10.004;2023-06-26T08:29:47;28.80;98.00
45066;DHT22;30830;53.704;10.004;2023-06-26T08:32:12;28.90;97.70
45066;DHT22;30830;53.704;10.004;2023-06-26T08:34:38;29.10;98.10
45066;DHT22;30830;53.704;10.004;2023-06-26T08:37:04;29.20;97.70
45066;DHT22;30830;53.704;10.004;2023-06-26T08:39:29;29.20;98.00
45066;DHT22;30830;53.704;10.004;2023-06-26T08:41:55;29.20;97.00
45066;DHT22;30830;53.704;10.004;2023-06-26T08:44:21;29.40;96.70
45066;DHT22;30830;53.704;10.004;2023-06-26T08:46:50;29.50;97.40
45066;DHT22;30830;53.704;10.004;2023-06-26T08:49:37;29.50;97.60
45066;DHT22;30830;53.704;10.004;2023-06-26T08:52:17;29.40;98.20
45066;DHT22;30830;53.704;10.004;2023-06-26T08:54:46;29.20;97.60
45066;DHT22;30830;53.704;10.004;2023-06-26T08:57:15;29.10;97.70
45066;DHT22;30830;53.704;10.004;2023-06-26T08:59:43;29.00;97.40
45066;DHT22;30830;53.704;10.004;2023-06-26T09:02:08;29.00;97.20
45066;DHT22;30830;53.704;10.004;2023-06-26T09:04:35;28.80;95.90
45066;DHT22;30830;53.704;10.004;2023-06-26T09:07:01;28.80;96.30
45066;DHT22;30830;53.704;10.004;2023-06-26T09:09:27;28.60;97.00
45066;DHT22;30830;53.704;10.004;2023-06-26T09:11:52;28.60;97.00
45066;DHT22;30830;53.704;10.004;2023-06-26T09:14:18;28.70;98.20
45066;DHT22;30830;53.704;10.004;2023-06-26T09:16:45;28.80;97.50
45066;DHT22;30830;53.704;10.004;2023-06-26T09:19:12;28.80;97.30
45066;DHT22;30830;53.704;10.004;2023-06-26T09:21:41;28.60;97.00
45066;DHT22;30830;53.704;10.004;2023-06-26T09:24:08;28.40;97.60
45066;DHT22;30830;53.704;10.004;2023-06-26T09:26:36;28.30;97.90
45066;DHT22;30830;53.704;10.004;2023-06-26T09:29:03;28.10;98.00
45066;DHT22;30830;53.704;10.004;2023-06-26T09:31:29;28.00;98.10
45066;DHT22;30830;53.704;10.004;2023-06-26T09:33:59;27.90;98.50
45066;DHT22;30830;53.704;10.004;2023-06-26T09:36:28;27.80;98.60
45066;DHT22;30830;53.704;10.004;2023-06-26T09:38:54;27.60;98.60
45066;DHT22;30830;53.704;10.004;2023-06-26T09:41:20;27.00;98.80
45066;DHT22;30830;53.704;10.004;2023-06-26T09:43:49;26.60;99.40
45066;DHT22;30830;53.704;10.004;2023-06-26T09:46:27;26.20;99.90
45066;DHT22;30830;53.704;10.004;2023-06-26T09:49:03;25.90;99.90
45066;DHT22;30830;53.704;10.004;2023-06-26T09:51:34;25.60;99.90
45066;DHT22;30830;53.704;10.004;2023-06-26T09:54:01;25.30;99.90
45066;DHT22;30830;53.704;10.004;2023-06-26T09:56:27;25.00;99.90
45066;DHT22;30830;53.704;10.004;2023-06-26T09:58:56;25.00;99.90
45066;DHT22;30830;53.704;10.004;2023-06-26T10:01:23;24.80;99.90
45066;DHT22;30830;53.704;10.004;2023-06-26T10:03:49;24.90;99.90
45066;DHT22;30830;53.704;10.004;2023-06-26T10:06:19;24.90;99.90
45066;DHT22;30830;53.704;10.004;2023-06-26T10:08:45;24.70;99.90
45066;DHT22;30830;53.704;10.004;2023-06-26T10:11:14;24.60;99.90
45066;DHT22;30830;53.704;10.004;2023-06-26T10:13:43;24.40;99.90
45066;DHT22;30830;53.704;10.004;2023-06-26T10:16:12;24.30;99.90
45066;DHT22;30830;53.704;10.004;2023-06-26T10:18:39;24.20;99.90
45066;DHT22;30830;53.704;10.004;2023-06-26T10:21:06;24.10;99.90
45066;DHT22;30830;53.704;10.004;2023-06-26T10:23:34;24.00;99.90
45066;DHT22;30830;53.704;10.004;2023-06-26T10:26:00;23.90;99.90
45066;DHT22;30830;53.704;10.004;2023-06-26T10:28:28;23.70;99.90
45066;DHT22;30830;53.704;10.004;2023-06-26T10:30:55;23.40;99.90
45066;DHT22;30830;53.704;10.004;2023-06-26T10:33:22;23.30;99.90
45066;DHT22;30830;53.704;10.004;2023-06-26T10:35:47;23.20;99.90
45066;DHT22;30830;53.704;10.004;2023-06-26T10:38:13;23.00;99.90
45066;DHT22;30830;53.704;10.004;2023-06-26T10:40:44;22.80;99.90
45066;DHT22;30830;53.704;10.004;2023-06-26T10:43:14;22.70;99.90
45066;DHT22;30830;53.704;10.004;2023-06-26T10:45:48;22.50;99.90
45066;DHT22;30830;53.704;10.004;2023-06-26T10:48:20;22.40;99.90
45066;DHT22;30830;53.704;10.004;2023-06-26T10:50:47;22.30;99.90
45066;DHT22;30830;53.704;10.004;2023-06-26T10:56:00;22.10;99.90
45066;DHT22;30830;53.704;10.004;2023-06-26T10:58:30;22.10;99.90
45066;DHT22;30830;53.704;10.004;2023-06-26T11:03:42;22.20;99.90
45066;DHT22;30830;53.704;10.004;2023-06-26T11:06:15;22.10;99.90
45066;DHT22;30830;53.704;10.004;2023-06-26T11:08:45;22.30;99.90
45066;DHT22;30830;53.704;10.004;2023-06-26T11:11:11;22.30;99.90
45066;DHT22;30830;53.704;10.004;2023-06-26T11:13:37;22.30;99.90
45066;DHT22;30830;53.704;10.004;2023-06-26T11:16:03;22.50;99.90
45066;DHT22;30830;53.704;10.004;2023-06-26T11:18:31;22.40;99.90
45066;DHT22;30830;53.704;10.004;2023-06-26T11:21:05;22.30;99.90
45066;DHT22;30830;53.704;10.004;2023-06-26T11:23:32;22.30;99.90
45066;DHT22;30830;53.704;10.004;2023-06-26T11:26:21;22.50;99.90
45066;DHT22;30830;53.704;10.004;2023-06-26T11:28:52;22.50;99.90
45066;DHT22;30830;53.704;10.004;2023-06-26T11:31:37;22.50;99.90
45066;DHT22;30830;53.704;10.004;2023-06-26T11:34:06;22.60;99.90
45066;DHT22;30830;53.704;10.004;2023-06-26T11:36:33;22.60;99.90
45066;DHT22;30830;53.704;10.004;2023-06-26T11:39:03;22.60;99.90
45066;DHT22;30830;53.704;10.004;2023-06-26T11:41:32;22.70;99.90
45066;DHT22;30830;53.704;10.004;2023-06-26T11:44:06;22.60;99.90
45066;DHT22;30830;53.704;10.004;2023-06-26T11:46:33;22.50;99.90
45066;DHT22;30830;53.704;10.004;2023-06-26T11:48:59;22.40;99.90
45066;DHT22;30830;53.704;10.004;2023-06-26T11:51:27;22.20;99.90
45066;DHT22;30830;53.704;10.004;2023-06-26T11:53:53;22.10;99.90
45066;DHT22;30830;53.704;10.004;2023-06-26T11:56:19;22.10;99.90
45066;DHT22;30830;53.704;10.004;2023-06-26T11:58:58;22.10;99.90
45066;DHT22;30830;53.704;10.004;2023-06-26T12:01:38;22.30;99.90
45066;DHT22;30830;53.704;10.004;2023-06-26T12:04:09;22.30;99.90
45066;DHT22;30830;53.704;10.004;2023-06-26T12:06:37;22.30;99.90
45066;DHT22;30830;53.704;10.004;2023-06-26T12:09:05;22.40;99.90
45066;DHT22;30830;53.704;10.004;2023-06-26T12:11:32;22.60;99.90
45066;DHT22;30830;53.704;10.004;2023-06-26T12:13:59;22.70;99.90
45066;DHT22;30830;53.704;10.004;2023-06-26T12:16:28;22.80;99.90
45066;DHT22;30830;53.704;10.004;2023-06-26T12:19:05;22.90;99.90
45066;DHT22;30830;53.704;10.004;2023-06-26T12:24:02;22.60;99.90
45066;DHT22;30830;53.704;10.004;2023-06-26T12:26:28;22.70;99.90
45066;DHT22;30830;53.704;10.004;2023-06-26T12:29:18;22.80;99.90
45066;DHT22;30830;53.704;10.004;2023-06-26T12:31:46;22.80;99.90
45066;DHT22;30830;53.704;10.004;2023-06-26T12:34:15;22.80;99.90
45066;DHT22;30830;53.704;10.004;2023-06-26T12:36:48;23.00;99.90
45066;DHT22;30830;53.704;10.004;2023-06-26T12:39:21;23.00;99.90
45066;DHT22;30830;53.704;10.004;2023-06-26T12:41:47;23.10;99.90
45066;DHT22;30830;53.704;10.004;2023-06-26T12:44:28;23.10;99.90
45066;DHT22;30830;53.704;10.004;2023-06-26T12:46:58;23.10;99.90
45066;DHT22;30830;53.704;10.004;2023-06-26T12:49:31;23.10;99.90
45066;DHT22;30830;53.704;10.004;2023-06-26T12:51:58;23.20;99.90
45066;DHT22;30830;53.704;10.004;2023-06-26T12:54:24;23.30;99.90
45066;DHT22;30830;53.704;10.004;2023-06-26T12:56:50;23.30;99.90
45066;DHT22;30830;53.704;10.004;2023-06-26T12:59:16;23.10;99.90
45066;DHT22;30830;53.704;10.004;2023-06-26T13:01:41;23.00;99.90
45066;DHT22;30830;53.704;10.004;2023-06-26T13:04:07;23.10;99.90
45066;DHT22;30830;53.704;10.004;2023-06-26T13:06:34;23.20;99.90
45066;DHT22;30830;53.704;10.004;2023-06-26T13:08:59;23.20;99.90
45066;DHT22;30830;53.704;10.004;2023-06-26T13:11:25;23.40;99.90
45066;DHT22;30830;53.704;10.004;2023-06-26T13:13:50;23.40;99.90
45066;DHT22;30830;53.704;10.004;2023-06-26T13:16:16;23.50;99.90
45066;DHT22;30830;53.704;10.004;2023-06-26T13:18:43;23.60;99.90
45066;DHT22;30830;53.704;10.004;2023-06-26T13:21:09;23.70;99.90
45066;DHT22;30830;53.704;10.004;2023-06-26T13:23:34;23.80;99.90
45066;DHT22;30830;53.704;10.004;2023-06-26T13:26:00;23.80;99.90
45066;DHT22;30830;53.704;10.004;2023-06-26T13:28:26;23.90;99.90
45066;DHT22;30830;53.704;10.004;2023-06-26T13:30:51;23.80;99.20
45066;DHT22;30830;53.704;10.004;2023-06-26T13:33:17;23.80;99.60
45066;DHT22;30830;53.704;10.004;2023-06-26T13:35:42;23.90;99.90
45066;DHT22;30830;53.704;10.004;2023-06-26T13:38:08;23.80;99.50
45066;DHT22;30830;53.704;10.004;2023-06-26T13:40:33;23.60;98.70
45066;DHT22;30830;53.704;10.004;2023-06-26T13:42:59;23.30;98.80
45066;DHT22;30830;53.704;10.004;2023-06-26T13:45:25;23.30;99.60
45066;DHT22;30830;53.704;10.004;2023-06-26T13:47:51;23.30;99.80
45066;DHT22;30830;53.704;10.004;2023-06-26T13:50:16;23.40;99.70
45066;DHT22;30830;53.704;10.004;2023-06-26T13:52:42;23.50;99.20
45066;DHT22;30830;53.704;10.004;2023-06-26T13:55:08;23.50;98.30
45066;DHT22;30830;53.704;10.004;2023-06-26T13:57:33;23.50;97.40
45066;DHT22;30830;53.704;10.004;2023-06-26T13:59:59;23.50;97.70
45066;DHT22;30830;53.704;10.004;2023-06-26T14:02:24;23.50;96.90
45066;DHT22;30830;53.704;10.004;2023-06-26T14:04:51;23.50;97.30
45066;DHT22;30830;53.704;10.004;2023-06-26T14:07:17;23.30;97.00
45066;DHT22;30830;53.704;10.004;2023-06-26T14:09:42;23.20;96.40
45066;DHT22;30830;53.704;10.004;2023-06-26T14:12:08;23.20;96.50
45066;DHT22;30830;53.704;10.004;2023-06-26T14:14:34;23.10;96.10
45066;DHT22;30830;53.704;10.004;2023-06-26T14:16:59;22.90;96.40
45066;DHT22;30830;53.704;10.004;2023-06-26T14:19:25;22.80;96.50
45066;DHT22;30830;53.704;10.004;2023-06-26T14:21:51;22.80;97.10
45066;DHT22;30830;53.704;10.004;2023-06-26T14:24:17;22.80;97.40
45066;DHT22;30830;53.704;10.004;2023-06-26T14:26:42;22.70;97.20
45066;DHT22;30830;53.704;10.004;2023-06-26T14:29:08;22.80;97.20
45066;DHT22;30830;53.704;10.004;2023-06-26T14:31:34;22.80;97.40
45066;DHT22;30830;53.704;10.004;2023-06-26T14:33:59;22.90;98.50
45066;DHT22;30830;53.704;10.004;2023-06-26T14:36:25;23.00;96.40
45066;DHT22;30830;53.704;10.004;2023-06-26T14:38:52;22.90;96.50
45066;DHT22;30830;53.704;10.004;2023-06-26T14:41:18;23.00;96.70
45066;DHT22;30830;53.704;10.004;2023-06-26T14:43:43;23.10;96.40
45066;DHT22;30830;53.704;10.004;2023-06-26T14:46:11;23.10;96.70
45066;DHT22;30830;53.704;10.004;2023-06-26T14:48:36;23.10;96.40
45066;DHT22;30830;53.704;10.004;2023-06-26T14:51:02;22.90;96.70
45066;DHT22;30830;53.704;10.004;2023-06-26T14:53:27;22.70;97.20
45066;DHT22;30830;53.704;10.004;2023-06-26T14:55:53;22.50;97.10
45066;DHT22;30830;53.704;10.004;2023-06-26T14:58:19;22.40;97.30
45066;DHT22;30830;53.704;10.004;2023-06-26T15:00:44;22.30;97.80
45066;DHT22;30830;53.704;10.004;2023-06-26T15:03:10;22.30;98.50
45066;DHT22;30830;53.704;10.004;2023-06-26T15:05:35;22.30;98.60
45066;DHT22;30830;53.704;10.004;2023-06-26T15:08:01;22.30;99.10
45066;DHT22;30830;53.704;10.004;2023-06-26T15:10:27;22.30;99.50
45066;DHT22;30830;53.704;10.004;2023-06-26T15:12:52;22.20;99.40
45066;DHT22;30830;53.704;10.004;2023-06-26T15:15:19;22.20;99.70
45066;DHT22;30830;53.704;10.004;2023-06-26T15:17:45;22.00;99.70
45066;DHT22;30830;53.704;10.004;2023-06-26T15:20:10;22.10;99.30
45066;DHT22;30830;53.704;10.004;2023-06-26T15:22:36;22.30;99.40
45066;DHT22;30830;53.704;10.004;2023-06-26T15:25:02;22.30;98.80